메인 페이지
METAR-TAF:

METAR-TAF

공항 :

이슬라마바드, 파키스탄

베나지르 부토 국제공항

위도: 33-37N, 경도: 073-06E, 고도: 507m

현재 날씨관측

예보는 24분 전, 00:30시(UTC)에 발표되었습니다.
무풍
온도 9°C
습도 71%
기압 1012 hPa
시정: 6000m

METAR: OPRN 180030Z 00000KT 6000 NSC 09/04 Q1012 NOSIG RMK A2990

시각: 05:54 (00:54 UTC)

예보

예보는 3 시간 24분 전, 21:30시(UTC)에 발표되었습니다.
예보 대상 시간: 18일 00시부터 19일 06시까지 (UTC)
북북서4kt
시정: 4000m
연무
일시적
18일 02시부터 18일 05시까지 (UTC)
시정: 2000m
연무
전환 중
18일 06시부터 18일 08시까지 (UTC)
시정 10km 이상
1500m 미만 상공 구름 및 적란운 없음
일시적
18일 09시부터 18일 12시까지 (UTC)
10kt, 순간 최대 풍속 20kt
전환 중
18일 14시부터 18일 16시까지 (UTC)
북북서6kt
시정: 6000m
일시적
19일 02시부터 19일 06시까지 (UTC)
시정: 2000m
연무

TAF: OPRN 172130Z 1800/1906 33004KT 4000 HZ NSC TEMPO 1802/1805 2000 HZ BECMG 1806/1808 30010 CAVOK TEMPO 1809/1812 27010G20KT BECMG 1814/1816 33006KT 6000 TEMPO 1902/1906 2000 HZ

4,000개 이상의 공항 관측 자료 및 예보 (METAR 및 TAF 보고).

지도상에서 검색 가능한 기상관측소가 노란 점과 빨간 점으로 표시되어 있습니다.

기상관측소 명을 보려면 표시 위로 마우스를 이동하세요.

날씨 관측과 예보를 보려면 클릭하세요.

지도 변경 : 확대하려면 엑스 표시가 있는 녹색 버튼, 축소하려면 빼기 표시가 있는 녹색 버튼, 다음 페이지의 지도를 보려면 녹색 화살표를 클릭하세요.


METAR-TAF: